createdAt,value
2022-08-31T00:00:05.613Z,19.22
2022-08-31T00:05:10.781Z,19.19
2022-08-31T00:10:15.247Z,19.15
2022-08-31T00:15:22.043Z,19.13
2022-08-31T00:20:33.251Z,19.03
2022-08-31T00:25:39.767Z,18.98
2022-08-31T00:30:43.949Z,18.92
2022-08-31T00:35:46.944Z,18.81
2022-08-31T00:40:49.863Z,18.81
2022-08-31T00:45:52.842Z,18.83
2022-08-31T00:50:57.449Z,18.86
2022-08-31T00:56:00.894Z,18.80
2022-08-31T01:01:08.263Z,18.79
2022-08-31T01:06:11.753Z,18.66
2022-08-31T01:11:16.338Z,18.58
2022-08-31T01:16:53.554Z,18.41
2022-08-31T01:22:07.350Z,18.33
2022-08-31T01:27:12.019Z,18.26
2022-08-31T01:32:14.996Z,18.25
2022-08-31T01:37:17.975Z,18.28
2022-08-31T01:42:20.907Z,18.37
2022-08-31T01:47:23.693Z,18.45
2022-08-31T01:52:28.636Z,18.55
2022-08-31T01:57:33.975Z,18.59
2022-08-31T02:02:37.880Z,18.53
2022-08-31T02:07:41.957Z,18.50
2022-08-31T02:12:45.008Z,18.43
2022-08-31T02:17:49.335Z,18.46
2022-08-31T02:22:55.626Z,18.42
2022-08-31T02:27:58.896Z,18.41
2022-08-31T02:33:01.821Z,18.45
2022-08-31T02:38:06.879Z,18.45
2022-08-31T02:43:14.214Z,18.44
2022-08-31T02:48:27.433Z,18.41
2022-08-31T02:53:30.429Z,18.36
2022-08-31T02:58:38.436Z,18.31
2022-08-31T03:03:41.314Z,18.27
2022-08-31T03:08:50.680Z,18.19
2022-08-31T03:13:58.289Z,18.13
2022-08-31T03:19:01.809Z,18.04
2022-08-31T03:24:05.256Z,18.02
2022-08-31T03:29:08.055Z,17.96
2022-08-31T03:34:10.978Z,17.89
2022-08-31T03:39:18.786Z,17.77
2022-08-31T03:44:23.551Z,17.74
2022-08-31T03:49:27.108Z,17.67
2022-08-31T03:54:30.198Z,17.62
2022-08-31T03:59:33.602Z,17.56
2022-08-31T04:04:36.466Z,17.53
2022-08-31T04:09:39.397Z,17.52
2022-08-31T04:14:42.818Z,17.49
2022-08-31T04:19:45.674Z,17.47
2022-08-31T04:24:48.520Z,17.41
2022-08-31T04:29:51.240Z,17.35
2022-08-31T04:34:56.411Z,17.32
2022-08-31T04:40:01.433Z,17.38
2022-08-31T04:45:05.391Z,17.40
2022-08-31T04:50:13.922Z,17.46
2022-08-31T04:55:17.613Z,17.40
2022-08-31T05:00:22.129Z,17.37
2022-08-31T05:05:25.090Z,17.43
2022-08-31T05:10:27.873Z,17.51
2022-08-31T05:15:30.850Z,17.60
2022-08-31T05:20:33.844Z,17.74
2022-08-31T05:25:40.580Z,17.82
2022-08-31T05:30:47.625Z,17.91
2022-08-31T05:35:50.793Z,18.02
2022-08-31T05:40:56.154Z,18.12
2022-08-31T05:45:59.700Z,18.25
2022-08-31T05:51:09.622Z,18.34
2022-08-31T05:56:23.456Z,18.50
2022-08-31T06:01:30.567Z,18.68
2022-08-31T06:06:34.588Z,18.82
2022-08-31T06:11:42.314Z,19.02
2022-08-31T06:16:45.851Z,19.18
2022-08-31T06:21:50.271Z,19.37
2022-08-31T06:27:00.142Z,19.55
2022-08-31T06:32:08.094Z,19.74
2022-08-31T06:37:18.938Z,19.98
2022-08-31T06:42:21.963Z,20.24
2022-08-31T06:47:26.130Z,20.48
2022-08-31T06:52:28.983Z,20.75
2022-08-31T06:57:31.972Z,21.01
2022-08-31T07:02:39.214Z,21.28
2022-08-31T07:07:41.949Z,21.55
2022-08-31T07:12:44.828Z,21.73
2022-08-31T07:17:49.832Z,21.91
2022-08-31T07:22:52.677Z,22.12
2022-08-31T07:27:55.688Z,22.34
2022-08-31T07:32:58.518Z,22.55
2022-08-31T07:38:19.711Z,22.70
2022-08-31T07:43:22.539Z,22.91
2022-08-31T07:48:26.212Z,23.93
2022-08-31T07:53:28.965Z,25.30
2022-08-31T07:58:32.359Z,25.56
2022-08-31T08:03:35.301Z,24.95
2022-08-31T08:08:38.136Z,24.69
2022-08-31T08:13:40.975Z,24.59
2022-08-31T08:18:44.094Z,24.55
2022-08-31T08:23:46.911Z,24.40
2022-08-31T08:28:50.439Z,24.29
2022-08-31T08:33:53.220Z,24.28
2022-08-31T08:38:57.402Z,24.43
2022-08-31T08:44:05.115Z,24.37
2022-08-31T08:49:28.518Z,24.48
2022-08-31T08:54:45.403Z,24.61
2022-08-31T08:59:51.093Z,24.80
2022-08-31T09:05:26.402Z,25.04
2022-08-31T09:10:42.167Z,25.16
2022-08-31T09:15:52.829Z,25.24
2022-08-31T09:21:22.104Z,25.40
2022-08-31T09:26:29.867Z,25.50
2022-08-31T09:31:39.757Z,25.58
2022-08-31T09:36:42.752Z,25.78
2022-08-31T09:41:47.128Z,25.89
2022-08-31T09:46:56.804Z,26.08
2022-08-31T09:52:46.301Z,26.32
2022-08-31T09:57:59.183Z,26.54
2022-08-31T10:03:19.350Z,26.71
2022-08-31T10:08:38.619Z,26.82
2022-08-31T10:13:58.810Z,26.83
2022-08-31T10:19:32.867Z,26.72
2022-08-31T10:25:04.339Z,26.84
2022-08-31T10:30:38.886Z,26.99
2022-08-31T10:36:00.421Z,27.15
2022-08-31T10:41:28.969Z,27.19
2022-08-31T10:46:34.739Z,27.23
2022-08-31T10:52:00.044Z,27.42
2022-08-31T10:57:40.258Z,27.56
2022-08-31T11:03:05.010Z,27.61
2022-08-31T11:08:37.232Z,27.67
2022-08-31T11:14:04.291Z,27.89
2022-08-31T11:19:15.923Z,28.24
2022-08-31T11:24:56.150Z,28.46
2022-08-31T11:30:24.566Z,28.56
2022-08-31T11:36:06.441Z,28.88
2022-08-31T11:41:11.282Z,29.10
2022-08-31T11:46:26.496Z,28.77
2022-08-31T11:51:40.774Z,28.08
2022-08-31T11:56:47.480Z,27.92
2022-08-31T12:01:50.461Z,28.13
2022-08-31T12:06:54.924Z,28.21
2022-08-31T12:12:24.676Z,28.41
2022-08-31T12:17:38.384Z,28.52
2022-08-31T12:23:30.195Z,28.70
2022-08-31T12:28:49.324Z,28.94
2022-08-31T12:34:18.085Z,28.99
2022-08-31T12:39:28.215Z,29.15
2022-08-31T12:44:41.554Z,29.28
2022-08-31T12:50:08.217Z,29.43
2022-08-31T12:55:28.967Z,29.24
2022-08-31T13:00:39.395Z,29.05
2022-08-31T13:05:46.633Z,29.01
2022-08-31T13:10:50.557Z,28.77
2022-08-31T13:16:05.547Z,28.60
2022-08-31T13:21:09.539Z,28.52
2022-08-31T13:26:20.651Z,28.56
2022-08-31T13:31:35.634Z,28.65
2022-08-31T13:36:53.857Z,28.67
2022-08-31T13:42:05.379Z,28.62
2022-08-31T13:47:25.324Z,28.58
2022-08-31T13:52:30.984Z,28.50
2022-08-31T13:57:35.973Z,28.40
2022-08-31T14:02:39.579Z,28.26
2022-08-31T14:07:44.090Z,28.16
2022-08-31T14:12:50.563Z,27.98
2022-08-31T14:23:25.735Z,27.94
2022-08-31T14:28:40.878Z,27.90
2022-08-31T14:33:44.460Z,27.96
2022-08-31T14:38:48.400Z,28.02
2022-08-31T14:43:51.253Z,28.08
2022-08-31T14:48:59.265Z,28.22
2022-08-31T14:54:02.223Z,28.39
2022-08-31T14:59:12.679Z,28.58
2022-08-31T15:04:20.696Z,28.76
2022-08-31T15:09:24.556Z,28.85
2022-08-31T15:14:31.235Z,28.88
2022-08-31T15:19:35.277Z,28.82
2022-08-31T15:24:45.129Z,28.61
2022-08-31T15:29:51.897Z,28.31
2022-08-31T15:34:58.213Z,28.17
2022-08-31T15:40:04.517Z,27.97
2022-08-31T15:45:09.036Z,27.74
2022-08-31T15:50:12.109Z,27.46
2022-08-31T15:55:21.633Z,27.29
2022-08-31T16:00:29.068Z,27.12
2022-08-31T16:05:43.638Z,26.99
2022-08-31T16:10:48.157Z,26.85
2022-08-31T16:15:52.449Z,26.74
2022-08-31T16:20:56.253Z,26.61
2022-08-31T16:26:00.649Z,26.45
2022-08-31T16:31:03.713Z,26.37
2022-08-31T16:36:07.088Z,26.22
2022-08-31T16:41:11.156Z,26.12
2022-08-31T16:46:39.595Z,26.00
2022-08-31T16:51:39.245Z,25.89
2022-08-31T16:56:43.440Z,25.79
2022-08-31T17:01:58.093Z,25.70
2022-08-31T17:07:01.590Z,25.59
2022-08-31T17:12:08.357Z,25.49
2022-08-31T17:17:18.221Z,25.36
2022-08-31T17:22:31.601Z,25.19
2022-08-31T17:27:35.786Z,25.04
2022-08-31T17:32:45.099Z,24.91
2022-08-31T17:37:50.072Z,24.73
2022-08-31T17:42:57.924Z,24.61
2022-08-31T17:48:02.960Z,24.50
2022-08-31T17:53:06.635Z,24.39
2022-08-31T17:58:09.581Z,24.26
2022-08-31T18:03:12.686Z,24.12
2022-08-31T18:08:15.925Z,23.98
2022-08-31T18:13:24.274Z,23.87
2022-08-31T18:18:27.345Z,23.79
2022-08-31T18:23:30.813Z,23.69
2022-08-31T18:28:33.654Z,23.65
2022-08-31T18:33:37.882Z,23.57
2022-08-31T18:38:40.791Z,23.54
2022-08-31T18:44:01.929Z,23.48
2022-08-31T18:49:12.626Z,23.40
2022-08-31T18:54:16.612Z,23.35
2022-08-31T18:59:20.568Z,23.32
2022-08-31T19:04:23.456Z,23.24
2022-08-31T19:09:26.433Z,23.15
2022-08-31T19:14:34.374Z,23.02
2022-08-31T19:19:37.940Z,22.94
2022-08-31T19:24:41.043Z,22.85
2022-08-31T19:29:46.517Z,22.81
2022-08-31T19:34:49.694Z,22.75
2022-08-31T19:39:53.024Z,22.62
2022-08-31T19:45:22.719Z,22.50
2022-08-31T19:50:19.728Z,22.39
2022-08-31T19:55:22.636Z,22.30
2022-08-31T20:00:25.591Z,22.22
2022-08-31T20:05:28.580Z,22.18
2022-08-31T20:10:31.442Z,22.14
2022-08-31T20:15:42.040Z,22.09
2022-08-31T20:20:48.546Z,22.02
2022-08-31T20:25:53.304Z,22.01
2022-08-31T20:30:59.289Z,21.91
2022-08-31T20:36:22.711Z,21.82
2022-08-31T20:41:29.997Z,21.76
2022-08-31T20:46:51.204Z,21.70
2022-08-31T20:51:56.383Z,21.62
2022-08-31T20:57:02.189Z,21.52
2022-08-31T21:02:07.695Z,21.46
2022-08-31T21:07:12.594Z,21.42
2022-08-31T21:12:18.145Z,21.36
2022-08-31T21:17:22.654Z,21.28
2022-08-31T21:22:27.713Z,21.26
2022-08-31T21:27:31.186Z,21.22
2022-08-31T21:32:34.397Z,21.22
2022-08-31T21:37:37.819Z,21.23
2022-08-31T21:42:40.728Z,21.24
2022-08-31T21:47:43.542Z,21.24
2022-08-31T21:52:46.445Z,21.21
2022-08-31T21:57:49.463Z,21.14
2022-08-31T22:02:54.869Z,21.14
2022-08-31T22:07:57.934Z,21.08
2022-08-31T22:13:01.121Z,21.03
2022-08-31T22:18:46.135Z,20.97
2022-08-31T22:23:32.476Z,20.89
2022-08-31T22:28:35.363Z,20.80
2022-08-31T22:33:39.522Z,20.77
2022-08-31T22:38:51.436Z,20.61
2022-08-31T22:43:54.297Z,20.57
2022-08-31T22:48:57.969Z,20.48
2022-08-31T22:54:00.868Z,20.38
2022-08-31T22:59:27.733Z,20.23
2022-08-31T23:04:33.834Z,20.10
2022-08-31T23:09:36.688Z,19.92
2022-08-31T23:14:42.175Z,19.72
2022-08-31T23:19:46.733Z,19.55
2022-08-31T23:24:51.817Z,19.35
2022-08-31T23:29:58.128Z,19.16
2022-08-31T23:35:01.568Z,19.03
2022-08-31T23:40:06.282Z,18.87
2022-08-31T23:45:10.207Z,18.66
2022-08-31T23:50:14.803Z,18.46
2022-08-31T23:55:19.163Z,18.16
